Time;durP1;ratioP1;P1;durP2;ratioP2;P2;SDS_P1;SDS_P2;PMS_P1;PMS_P2;Temp;Humidity;BMP_temperature;BMP_pressure;BME280_temperature;BME280_humidity;BME280_pressure;Samples;Min_cycle;Max_cycle;Signal;HPM_P1;HPM_P2
2021/08/22 00:00:03;;;;;;;8.53;5.97;;;18.00;99.90;;;;;;5099177;28;21166;-65
2021/08/22 00:02:29;;;;;;;9.90;5.87;;;18.00;99.90;;;;;;5099548;28;20620;-65
2021/08/22 00:04:57;;;;;;;10.53;6.97;;;18.00;99.90;;;;;;5098661;28;20684;-65
2021/08/22 00:07:24;;;;;;;8.10;6.10;;;18.10;99.90;;;;;;5116714;28;20624;-65
2021/08/22 00:09:51;;;;;;;8.30;6.13;;;18.00;99.90;;;;;;5098598;28;20628;-65
2021/08/22 00:12:17;;;;;;;9.33;5.60;;;18.10;99.90;;;;;;5117024;28;20628;-65
2021/08/22 00:14:43;;;;;;;7.57;5.43;;;18.00;99.90;;;;;;5117198;28;20599;-65
2021/08/22 00:17:10;;;;;;;6.50;5.90;;;18.00;99.90;;;;;;5117109;28;21113;-65
2021/08/22 00:19:36;;;;;;;6.70;6.10;;;18.00;99.90;;;;;;5116975;28;20600;-65
2021/08/22 00:22:02;;;;;;;6.10;5.50;;;18.00;99.90;;;;;;5116872;28;20988;-65
2021/08/22 00:24:29;;;;;;;6.10;5.10;;;17.90;99.90;;;;;;5116992;28;20615;-65
2021/08/22 00:26:55;;;;;;;5.33;4.80;;;17.90;99.90;;;;;;5116905;28;20619;-65
2021/08/22 00:29:21;;;;;;;8.87;5.60;;;18.00;99.90;;;;;;5116842;28;20592;-65
2021/08/22 00:31:48;;;;;;;5.40;4.63;;;18.10;99.90;;;;;;5117185;28;20608;-65
2021/08/22 00:34:14;;;;;;;6.40;4.57;;;18.00;99.90;;;;;;5117806;28;20608;-65
2021/08/22 00:36:42;;;;;;;9.10;5.47;;;18.00;99.90;;;;;;5116520;28;20619;-65
2021/08/22 00:39:08;;;;;;;7.80;6.30;;;18.10;99.90;;;;;;5116795;28;20689;-65
2021/08/22 00:41:35;;;;;;;10.23;5.90;;;18.00;99.90;;;;;;5116437;28;20631;-65
2021/08/22 00:44:01;;;;;;;7.27;5.93;;;18.00;99.90;;;;;;5116490;28;20724;-65
2021/08/22 00:46:29;;;;;;;6.90;5.83;;;18.00;99.90;;;;;;5097767;28;20612;-65
2021/08/22 00:48:57;;;;;;;9.00;5.40;;;18.00;99.90;;;;;;5098128;28;20656;-65
2021/08/22 00:51:25;;;;;;;8.17;5.90;;;17.80;99.90;;;;;;5116399;28;20653;-65
2021/08/22 00:53:51;;;;;;;7.50;6.00;;;17.80;99.90;;;;;;5097579;28;20654;-65
2021/08/22 00:56:17;;;;;;;6.87;5.20;;;17.80;99.90;;;;;;5116705;28;20612;-65
2021/08/22 00:58:44;;;;;;;7.60;6.00;;;17.80;99.90;;;;;;5115652;28;20627;-65
2021/08/22 01:01:21;;;;;;;10.00;5.50;;;17.80;99.90;;;;;;5116561;28;20612;-65
2021/08/22 01:04:06;;;;;;;6.60;5.90;;;17.70;99.90;;;;;;5116447;28;20916;-65
2021/08/22 01:06:54;;;;;;;5.97;5.43;;;17.80;99.90;;;;;;5116311;28;20635;-65
2021/08/22 01:09:31;;;;;;;6.00;5.57;;;17.70;99.90;;;;;;5098004;28;20630;-65
2021/08/22 01:12:03;;;;;;;5.60;4.70;;;17.70;99.90;;;;;;5115904;28;20623;-65
2021/08/22 01:14:35;;;;;;;8.80;5.10;;;17.70;99.90;;;;;;5098153;28;20593;-64
2021/08/22 01:17:03;;;;;;;5.43;5.00;;;17.60;99.90;;;;;;5115810;28;20681;-65
2021/08/22 01:19:57;;;;;;;5.60;4.30;;;17.70;99.90;;;;;;5115627;28;20622;-64
2021/08/22 01:22:25;;;;;;;9.60;5.30;;;17.60;99.90;;;;;;5116289;28;20588;-63
2021/08/22 01:24:53;;;;;;;5.50;5.00;;;17.60;99.90;;;;;;5116160;28;20619;-63
2021/08/22 01:27:21;;;;;;;5.43;4.80;;;17.60;99.90;;;;;;5115774;28;20665;-63
2021/08/22 01:30:09;;;;;;;4.80;4.40;;;17.50;99.90;;;;;;5115918;28;20628;-63
2021/08/22 01:32:44;;;;;;;5.63;4.70;;;17.60;99.90;;;;;;5116177;28;20982;-63
2021/08/22 01:35:17;;;;;;;5.83;5.30;;;17.50;99.90;;;;;;5115672;28;20553;-63
2021/08/22 01:37:45;;;;;;;5.67;3.93;;;17.50;99.90;;;;;;5115192;28;20706;-63
2021/08/22 01:40:15;;;;;;;5.17;4.70;;;17.40;99.90;;;;;;5115588;28;20613;-63
2021/08/22 01:42:44;;;;;;;5.10;4.30;;;17.40;99.90;;;;;;5115455;28;20545;-63
2021/08/22 01:45:15;;;;;;;7.77;4.70;;;17.40;99.90;;;;;;5114877;28;21142;-63
2021/08/22 01:47:46;;;;;;;8.13;5.07;;;17.30;99.90;;;;;;5115672;28;20632;-63
2021/08/22 01:50:20;;;;;;;11.70;4.73;;;17.30;99.90;;;;;;5115541;28;20553;-63
2021/08/22 01:52:52;;;;;;;4.77;4.30;;;17.30;99.90;;;;;;5115148;28;20609;-63
2021/08/22 01:55:18;;;;;;;4.97;4.33;;;17.30;99.90;;;;;;5115060;28;20612;-63
2021/08/22 01:57:45;;;;;;;4.10;3.70;;;17.20;99.90;;;;;;5115095;28;20608;-63
2021/08/22 02:00:13;;;;;;;5.00;4.60;;;17.20;99.90;;;;;;5115509;28;20609;-63
2021/08/22 02:02:49;;;;;;;5.43;4.13;;;17.20;99.90;;;;;;5114369;28;20596;-63
2021/08/22 02:05:17;;;;;;;5.37;4.87;;;17.20;99.90;;;;;;5114396;28;20632;-63
2021/08/22 02:07:43;;;;;;;6.10;4.50;;;17.10;99.90;;;;;;5114878;28;20600;-63
2021/08/22 02:10:16;;;;;;;4.90;4.50;;;17.10;99.90;;;;;;5114210;28;20623;-63
2021/08/22 02:12:47;;;;;;;5.87;4.43;;;17.10;99.90;;;;;;5114773;28;20589;-64
2021/08/22 02:15:21;;;;;;;6.13;5.07;;;17.10;99.90;;;;;;5115147;28;20576;-64
2021/08/22 02:17:52;;;;;;;7.93;5.40;;;17.10;99.90;;;;;;5114390;28;20655;-64
2021/08/22 02:20:19;;;;;;;6.37;4.73;;;17.20;99.90;;;;;;5114618;28;20568;-64
2021/08/22 02:22:47;;;;;;;8.03;4.80;;;17.10;99.90;;;;;;5114791;28;20620;-64
2021/08/22 02:25:14;;;;;;;7.43;5.20;;;17.10;99.90;;;;;;5113854;28;20628;-64
2021/08/22 02:27:41;;;;;;;8.23;4.50;;;17.10;99.90;;;;;;5114467;28;20597;-64
2021/08/22 02:30:08;;;;;;;5.30;4.37;;;17.20;99.90;;;;;;5114312;28;21139;-64
2021/08/22 02:32:36;;;;;;;4.90;4.50;;;17.20;99.90;;;;;;5114204;28;20659;-64
2021/08/22 02:35:03;;;;;;;4.50;4.10;;;17.20;99.90;;;;;;5114257;28;20608;-64
2021/08/22 02:37:30;;;;;;;9.00;4.80;;;17.20;99.90;;;;;;5096382;28;20941;-64
2021/08/22 02:39:56;;;;;;;7.33;4.67;;;17.20;99.90;;;;;;5114262;28;21051;-64
2021/08/22 02:42:23;;;;;;;4.20;3.80;;;17.20;99.90;;;;;;5114243;28;20640;-64
2021/08/22 02:44:49;;;;;;;12.20;5.03;;;17.20;99.90;;;;;;5114221;28;20585;-64
2021/08/22 02:47:16;;;;;;;5.60;4.73;;;17.20;99.90;;;;;;5095422;28;20642;-65
2021/08/22 02:49:43;;;;;;;4.10;3.80;;;17.20;99.90;;;;;;5114142;28;20596;-64
2021/08/22 02:52:10;;;;;;;5.33;4.37;;;17.20;99.90;;;;;;5114278;28;20612;-64
2021/08/22 02:54:37;;;;;;;4.90;4.37;;;17.20;99.90;;;;;;5114198;28;20608;-64
2021/08/22 02:57:03;;;;;;;4.33;4.00;;;17.10;99.90;;;;;;5114265;28;20619;-64
2021/08/22 02:59:30;;;;;;;5.07;4.30;;;17.10;99.90;;;;;;5114022;28;20603;-64
2021/08/22 03:01:56;;;;;;;5.27;4.63;;;17.10;99.90;;;;;;5113527;28;20644;-64
2021/08/22 03:04:22;;;;;;;8.10;4.47;;;17.10;99.90;;;;;;5113792;28;20975;-64
2021/08/22 03:06:48;;;;;;;4.97;4.57;;;17.10;99.90;;;;;;5112427;28;21145;-64
2021/08/22 03:09:15;;;;;;;4.73;4.23;;;17.10;99.90;;;;;;5095020;28;20624;-64
2021/08/22 03:11:41;;;;;;;4.73;4.33;;;17.20;99.90;;;;;;5113214;28;20620;-64
2021/08/22 03:14:08;;;;;;;4.97;4.50;;;17.20;99.90;;;;;;5112319;28;20657;-64
2021/08/22 03:16:34;;;;;;;5.10;4.20;;;17.20;99.90;;;;;;5113531;28;21044;-64
2021/08/22 03:19:00;;;;;;;4.30;3.90;;;17.20;99.90;;;;;;5113869;28;20600;-64
2021/08/22 03:21:27;;;;;;;4.60;4.20;;;17.30;99.90;;;;;;5113968;28;20616;-64
2021/08/22 03:23:53;;;;;;;7.20;4.60;;;17.30;99.90;;;;;;5113326;28;21062;-64
2021/08/22 03:26:19;;;;;;;4.80;4.40;;;17.30;99.90;;;;;;5113884;28;20632;-64
2021/08/22 03:28:45;;;;;;;4.50;4.10;;;17.30;99.90;;;;;;5113943;28;20608;-64
2021/08/22 03:31:12;;;;;;;4.53;4.10;;;17.20;99.90;;;;;;5113159;28;20630;-64
2021/08/22 03:33:38;;;;;;;5.50;4.43;;;17.20;99.90;;;;;;5095664;28;20642;-64
2021/08/22 03:36:04;;;;;;;4.67;4.37;;;17.20;99.90;;;;;;5113670;28;20603;-64
2021/08/22 03:38:31;;;;;;;5.03;4.40;;;17.20;99.90;;;;;;5113716;28;21146;-64
2021/08/22 03:40:57;;;;;;;5.47;4.77;;;17.20;99.90;;;;;;5094888;28;20641;-64
2021/08/22 03:43:23;;;;;;;6.73;4.47;;;17.20;99.90;;;;;;5113588;28;20990;-64
2021/08/22 03:45:51;;;;;;;5.80;4.77;;;17.10;99.90;;;;;;5113576;28;20612;-64
2021/08/22 03:48:21;;;;;;;5.77;4.37;;;17.10;99.90;;;;;;5113322;28;20643;-64
2021/08/22 03:50:50;;;;;;;4.30;4.00;;;17.10;99.90;;;;;;5113366;28;20616;-64
2021/08/22 03:53:16;;;;;;;6.50;4.30;;;17.00;99.90;;;;;;5112896;28;20675;-64
2021/08/22 03:55:44;;;;;;;5.23;4.30;;;17.00;99.90;;;;;;5113447;28;20600;-64
2021/08/22 03:58:12;;;;;;;8.77;4.87;;;17.00;99.90;;;;;;5113286;28;20620;-64
2021/08/22 04:00:39;;;;;;;4.60;4.30;;;17.00;99.90;;;;;;5113449;28;20593;-64
2021/08/22 04:03:05;;;;;;;6.10;5.07;;;17.00;99.90;;;;;;5095152;28;20631;-64
2021/08/22 04:05:35;;;;;;;5.13;4.50;;;16.90;99.90;;;;;;5113479;28;20639;-64
2021/08/22 04:08:02;;;;;;;5.50;5.10;;;17.00;99.90;;;;;;5113780;28;20575;-64
2021/08/22 04:10:28;;;;;;;6.43;4.90;;;17.00;99.90;;;;;;5113690;28;20631;-64
2021/08/22 04:12:57;;;;;;;6.67;5.13;;;17.00;99.90;;;;;;5113683;28;20643;-64
2021/08/22 04:15:23;;;;;;;8.03;5.07;;;17.00;99.90;;;;;;5113989;28;20604;-64
2021/08/22 04:17:50;;;;;;;5.23;4.77;;;17.00;99.90;;;;;;5113985;28;20622;-64
2021/08/22 04:20:17;;;;;;;6.50;4.80;;;17.00;99.90;;;;;;5113730;28;20603;-64
2021/08/22 04:22:43;;;;;;;4.90;4.43;;;17.00;99.90;;;;;;5095421;28;20596;-64
2021/08/22 04:25:12;;;;;;;5.33;4.80;;;17.00;99.90;;;;;;5113614;28;20664;-64
2021/08/22 04:27:41;;;;;;;4.20;3.87;;;17.00;99.90;;;;;;5116818;28;20612;-64
2021/08/22 04:30:09;;;;;;;7.97;4.70;;;17.10;99.90;;;;;;5117215;28;20588;-64
2021/08/22 04:32:37;;;;;;;5.23;4.73;;;17.10;99.90;;;;;;5117157;28;21157;-64
2021/08/22 04:35:06;;;;;;;5.53;5.07;;;17.20;99.90;;;;;;5116858;28;20679;-64
2021/08/22 04:37:32;;;;;;;6.27;4.67;;;17.20;99.90;;;;;;5117351;28;20612;-64
2021/08/22 04:39:59;;;;;;;9.27;4.80;;;17.20;99.90;;;;;;5099004;28;20612;-64
2021/08/22 04:42:25;;;;;;;5.57;5.07;;;17.30;99.90;;;;;;5116416;28;20646;-64
2021/08/22 04:44:52;;;;;;;5.87;5.37;;;17.30;99.90;;;;;;5116958;28;20638;-64
2021/08/22 04:47:18;;;;;;;6.03;4.77;;;17.30;99.90;;;;;;5098162;28;20647;-64
2021/08/22 04:49:44;;;;;;;6.27;5.17;;;17.30;99.90;;;;;;5116745;28;20707;-64
2021/08/22 04:52:11;;;;;;;5.80;5.20;;;17.40;99.90;;;;;;5116514;28;20607;-64
2021/08/22 04:54:37;;;;;;;5.30;4.90;;;17.40;99.90;;;;;;5116628;28;20652;-64
2021/08/22 04:57:04;;;;;;;5.80;4.70;;;17.40;99.90;;;;;;5115703;28;20673;-64
2021/08/22 04:59:30;;;;;;;6.00;5.10;;;17.60;99.90;;;;;;5115802;28;20623;-64
2021/08/22 05:01:56;;;;;;;5.97;5.40;;;17.70;99.90;;;;;;5116372;28;20608;-64
2021/08/22 05:04:22;;;;;;;5.07;4.60;;;17.80;99.90;;;;;;5116292;28;20956;-64
2021/08/22 05:06:49;;;;;;;7.90;5.87;;;17.80;99.90;;;;;;5116551;28;20616;-64
2021/08/22 05:09:18;;;;;;;5.83;5.23;;;17.90;99.90;;;;;;5116039;28;20622;-64
2021/08/22 05:11:44;;;;;;;6.30;5.07;;;17.90;99.90;;;;;;5116200;28;20596;-64
2021/08/22 05:14:10;;;;;;;10.03;5.73;;;17.90;99.90;;;;;;5116162;28;20942;-64
2021/08/22 05:16:37;;;;;;;9.40;5.50;;;17.80;99.90;;;;;;5115981;28;20592;-64
2021/08/22 05:19:05;;;;;;;5.33;4.83;;;17.90;99.90;;;;;;5098105;28;20661;-64
2021/08/22 05:21:34;;;;;;;7.60;5.23;;;17.90;99.90;;;;;;5115840;28;20977;-64
2021/08/22 05:24:00;;;;;;;8.93;5.73;;;18.00;99.90;;;;;;5097666;28;20592;-64
2021/08/22 05:26:27;;;;;;;8.70;4.97;;;18.00;99.90;;;;;;5115615;28;20619;-64
2021/08/22 05:28:55;;;;;;;5.43;4.93;;;18.10;99.90;;;;;;5098469;28;20996;-64
2021/08/22 05:31:21;;;;;;;5.23;4.83;;;18.10;99.90;;;;;;5116005;28;20612;-64
2021/08/22 05:33:47;;;;;;;4.80;4.40;;;18.20;99.90;;;;;;5115746;28;21178;-64
2021/08/22 05:36:19;;;;;;;8.50;5.17;;;18.30;99.90;;;;;;5115678;28;20612;-64
2021/08/22 05:38:46;;;;;;;6.67;4.93;;;18.40;99.90;;;;;;5114942;28;20648;-64
2021/08/22 05:41:13;;;;;;;4.97;4.57;;;18.50;99.90;;;;;;5115206;28;20648;-64
2021/08/22 05:43:42;;;;;;;5.60;5.10;;;18.50;99.90;;;;;;5115633;28;20604;-64
2021/08/22 05:46:09;;;;;;;5.70;5.10;;;18.50;99.90;;;;;;5115117;28;21193;-64
2021/08/22 05:48:37;;;;;;;8.20;5.10;;;18.40;99.90;;;;;;5115242;28;20739;-64
2021/08/22 05:51:04;;;;;;;6.03;5.07;;;18.40;99.90;;;;;;5097330;28;20631;-64
2021/08/22 05:53:31;;;;;;;6.20;5.00;;;18.60;99.90;;;;;;5115598;28;20648;-64
2021/08/22 05:55:58;;;;;;;6.20;4.20;;;18.70;99.90;;;;;;5115008;28;20610;-64
2021/08/22 05:58:24;;;;;;;6.20;5.40;;;18.80;99.90;;;;;;5115779;28;21146;-64
2021/08/22 06:00:51;;;;;;;7.23;5.97;;;18.70;99.90;;;;;;5115410;28;21153;-64
2021/08/22 06:03:17;;;;;;;13.43;5.60;;;18.70;99.90;;;;;;5115677;28;20588;-64
2021/08/22 06:05:43;;;;;;;6.20;5.70;;;18.70;99.90;;;;;;5114994;28;20584;-64
2021/08/22 06:08:10;;;;;;;6.23;5.63;;;18.70;99.90;;;;;;5096431;28;20622;-64
2021/08/22 06:10:36;;;;;;;9.10;6.23;;;18.70;99.90;;;;;;5115104;28;20924;-64
2021/08/22 06:13:02;;;;;;;6.33;5.70;;;18.80;99.90;;;;;;5114614;28;21154;-64
2021/08/22 06:15:29;;;;;;;6.27;5.67;;;18.60;99.90;;;;;;5115152;28;20593;-64
2021/08/22 06:17:55;;;;;;;7.97;6.40;;;18.70;99.90;;;;;;5115087;28;21145;-64
2021/08/22 06:20:25;;;;;;;6.63;5.73;;;18.80;99.90;;;;;;5114905;28;20565;-64
2021/08/22 06:22:52;;;;;;;11.43;7.00;;;18.80;99.90;;;;;;5114749;28;20592;-64
2021/08/22 06:25:18;;;;;;;8.37;5.90;;;18.80;99.90;;;;;;5114971;28;20618;-64
2021/08/22 06:27:45;;;;;;;7.13;6.30;;;18.90;99.90;;;;;;5115186;28;20601;-64
2021/08/22 06:30:11;;;;;;;5.83;5.40;;;18.80;99.90;;;;;;5114642;28;20620;-64
2021/08/22 06:32:38;;;;;;;6.30;5.80;;;18.80;99.90;;;;;;5114727;28;20612;-64
2021/08/22 06:35:04;;;;;;;7.70;6.63;;;18.90;99.90;;;;;;5114732;28;20639;-64
2021/08/22 06:37:31;;;;;;;6.90;6.20;;;19.10;99.90;;;;;;5114325;28;20588;-64
2021/08/22 06:39:58;;;;;;;9.40;6.10;;;19.10;99.90;;;;;;5114683;28;20616;-64
2021/08/22 06:42:25;;;;;;;8.60;6.50;;;19.10;99.90;;;;;;5095710;28;20652;-64
2021/08/22 06:44:52;;;;;;;7.83;5.93;;;19.30;99.90;;;;;;5113557;28;20620;-64
2021/08/22 06:47:18;;;;;;;7.27;6.33;;;19.20;99.90;;;;;;5114341;28;20632;-64
2021/08/22 06:49:45;;;;;;;7.73;6.93;;;19.30;99.90;;;;;;5114182;28;20585;-64
2021/08/22 06:52:12;;;;;;;6.83;6.20;;;19.30;99.90;;;;;;5114315;28;20589;-64
2021/08/22 06:54:41;;;;;;;7.53;6.47;;;19.40;99.90;;;;;;5114178;28;20646;-64
2021/08/22 06:57:12;;;;;;;9.47;5.63;;;19.50;99.90;;;;;;5114197;28;20603;-64
2021/08/22 06:59:41;;;;;;;6.93;6.33;;;19.60;99.90;;;;;;5114080;28;20568;-64
2021/08/22 07:02:07;;;;;;;6.77;6.23;;;19.70;99.90;;;;;;5114208;28;21185;-64
2021/08/22 07:04:33;;;;;;;9.23;6.20;;;19.50;99.90;;;;;;5113691;28;20622;-64
2021/08/22 07:07:00;;;;;;;7.73;5.77;;;19.60;99.90;;;;;;5114073;28;20687;-64
2021/08/22 07:09:26;;;;;;;8.03;5.73;;;19.70;99.90;;;;;;5114375;28;20612;-65
2021/08/22 07:11:52;;;;;;;7.37;6.67;;;19.70;99.90;;;;;;5114911;28;20612;-63
2021/08/22 07:14:19;;;;;;;9.10;6.47;;;19.80;99.90;;;;;;5114178;28;20652;-65
2021/08/22 07:16:45;;;;;;;6.60;6.00;;;19.90;99.90;;;;;;5114074;28;20612;-65
2021/08/22 07:19:12;;;;;;;7.03;6.30;;;19.80;99.90;;;;;;5113611;28;21146;-63
2021/08/22 07:21:38;;;;;;;7.90;6.63;;;19.90;99.90;;;;;;5113821;28;20953;-64
2021/08/22 07:24:05;;;;;;;10.20;7.23;;;19.80;99.90;;;;;;5095704;28;20723;-63
2021/08/22 07:26:31;;;;;;;9.00;7.17;;;19.70;99.90;;;;;;5114011;28;20592;-64
2021/08/22 07:29:02;;;;;;;7.23;6.47;;;19.70;99.90;;;;;;5113898;28;21181;-63
2021/08/22 07:31:28;;;;;;;6.97;6.37;;;19.70;99.90;;;;;;5112986;28;20620;-64
2021/08/22 07:33:54;;;;;;;11.33;6.57;;;19.90;99.90;;;;;;5113837;28;20652;-64
2021/08/22 07:36:21;;;;;;;9.07;6.87;;;20.00;99.90;;;;;;5113632;28;20593;-64
2021/08/22 07:38:47;;;;;;;6.60;5.97;;;20.10;99.90;;;;;;5113822;28;20611;-64
2021/08/22 07:41:13;;;;;;;8.60;6.30;;;20.20;99.90;;;;;;5113380;28;20759;-64
2021/08/22 07:43:40;;;;;;;7.90;7.10;;;20.30;99.90;;;;;;5113504;28;21146;-64
2021/08/22 07:46:06;;;;;;;7.97;6.07;;;20.60;99.90;;;;;;5113151;28;20968;-64
2021/08/22 07:48:32;;;;;;;12.83;6.97;;;20.70;99.90;;;;;;5112341;28;21004;-64
2021/08/22 07:50:59;;;;;;;10.10;6.17;;;20.80;99.90;;;;;;5113616;28;20603;-65
2021/08/22 07:53:25;;;;;;;5.83;5.33;;;20.80;99.90;;;;;;5113551;28;20596;-64
2021/08/22 07:55:51;;;;;;;6.80;6.30;;;20.90;99.90;;;;;;5113361;28;20589;-64
2021/08/22 07:58:18;;;;;;;11.13;7.20;;;21.00;99.90;;;;;;5113475;28;21127;-64
2021/08/22 08:00:44;;;;;;;8.67;6.10;;;21.00;99.90;;;;;;5114789;28;20592;-63
2021/08/22 08:03:10;;;;;;;8.53;6.60;;;21.10;99.90;;;;;;5117635;28;20589;-63
2021/08/22 08:05:37;;;;;;;6.63;6.13;;;21.20;99.90;;;;;;5098685;28;20631;-63
2021/08/22 08:08:03;;;;;;;8.70;6.03;;;20.80;99.90;;;;;;5084017;28;20715;-63
2021/08/22 08:10:29;;;;;;;7.13;6.53;;;20.80;99.90;;;;;;5098588;28;20611;-64
2021/08/22 08:12:56;;;;;;;7.37;6.77;;;20.70;99.90;;;;;;5116568;28;20948;-64
2021/08/22 08:15:24;;;;;;;6.83;6.23;;;20.60;99.90;;;;;;5116737;28;21023;-64
2021/08/22 08:17:50;;;;;;;8.60;6.80;;;20.50;99.90;;;;;;5117328;28;21139;-64
2021/08/22 08:20:17;;;;;;;7.20;6.40;;;20.50;99.90;;;;;;5116795;28;21051;-64
2021/08/22 08:22:43;;;;;;;8.83;7.00;;;20.50;99.90;;;;;;5116482;28;20627;-63
2021/08/22 08:25:10;;;;;;;8.23;7.10;;;20.70;99.90;;;;;;5116756;28;20615;-64
2021/08/22 08:27:36;;;;;;;7.23;6.60;;;20.80;99.90;;;;;;5098848;28;20623;-64
2021/08/22 08:30:04;;;;;;;11.23;6.80;;;20.70;99.90;;;;;;5116418;28;20616;-63
2021/08/22 08:32:30;;;;;;;7.57;6.87;;;20.70;99.90;;;;;;5115694;28;20608;-64
2021/08/22 08:34:56;;;;;;;7.07;6.47;;;20.60;99.90;;;;;;5116466;28;20652;-64
2021/08/22 08:37:23;;;;;;;6.97;6.20;;;20.60;99.90;;;;;;5115321;28;20624;-64
2021/08/22 08:39:49;;;;;;;7.20;6.50;;;20.80;99.90;;;;;;5116459;28;20711;-65
2021/08/22 08:42:23;;;;;;;7.00;6.00;;;20.70;99.90;;;;;;5116013;28;20743;-64
2021/08/22 08:44:54;;;;;;;7.90;7.20;;;20.60;99.90;;;;;;5116187;28;20612;-64
2021/08/22 08:47:25;;;;;;;7.20;6.50;;;20.50;99.90;;;;;;5115247;28;21198;-64
2021/08/22 08:50:06;;;;;;;8.00;7.30;;;20.40;99.90;;;;;;5116730;28;20576;-64
2021/08/22 08:53:04;;;;;;;7.67;7.07;;;20.30;99.90;;;;;;5116601;28;20600;-65
2021/08/22 08:55:40;;;;;;;8.50;7.70;;;20.30;99.90;;;;;;5116432;28;20592;-64
2021/08/22 08:58:06;;;;;;;10.33;7.47;;;20.30;99.90;;;;;;5116535;28;21179;-64
2021/08/22 09:00:37;;;;;;;7.30;6.60;;;20.20;99.90;;;;;;5116251;28;20603;-64
2021/08/22 09:03:04;;;;;;;7.50;6.80;;;20.00;99.90;;;;;;5115840;28;20624;-64
2021/08/22 09:05:52;;;;;;;8.20;7.23;;;20.00;99.90;;;;;;5116416;28;20971;-64
2021/08/22 09:08:22;;;;;;;7.67;6.97;;;20.00;99.90;;;;;;5116378;28;20576;-63
2021/08/22 09:11:09;;;;;;;8.87;7.03;;;20.00;99.90;;;;;;5116436;28;20604;-65
2021/08/22 09:14:10;;;;;;;8.53;7.63;;;20.00;99.90;;;;;;5116593;28;20936;-65
2021/08/22 09:17:25;;;;;;;8.03;7.43;;;20.00;99.90;;;;;;5116144;28;20625;-65
2021/08/22 09:19:51;;;;;;;7.97;7.30;;;20.00;99.90;;;;;;5115442;28;20620;-65
2021/08/22 09:22:20;;;;;;;9.30;7.13;;;20.20;99.90;;;;;;5116076;28;20619;-64
2021/08/22 09:25:24;;;;;;;8.80;6.97;;;20.30;99.90;;;;;;5115980;28;20948;-65
2021/08/22 09:28:16;;;;;;;9.00;8.00;;;20.20;99.90;;;;;;5116121;28;20581;-65
2021/08/22 09:31:39;;;;;;;7.97;7.17;;;20.30;99.90;;;;;;5068817;28;21146;-64
2021/08/22 09:34:43;;;;;;;10.90;7.83;;;20.20;99.90;;;;;;5097725;28;21216;-65
2021/08/22 09:37:28;;;;;;;7.73;7.03;;;20.50;99.90;;;;;;5115952;28;20622;-65
2021/08/22 09:40:32;;;;;;;7.10;6.50;;;20.80;99.90;;;;;;5115666;28;20719;-64
2021/08/22 09:43:36;;;;;;;6.67;6.13;;;21.00;99.90;;;;;;5115668;28;20779;-64
2021/08/22 09:46:39;;;;;;;7.43;6.80;;;21.00;99.90;;;;;;5115438;28;20564;-63
2021/08/22 09:49:43;;;;;;;7.07;6.47;;;21.00;99.90;;;;;;5115426;28;20594;-64
2021/08/22 09:52:48;;;;;;;7.43;6.83;;;20.50;99.90;;;;;;5115277;28;20957;-63
2021/08/22 09:55:41;;;;;;;8.07;7.30;;;20.50;99.90;;;;;;5114771;28;21287;-64
2021/08/22 09:58:35;;;;;;;8.50;6.93;;;20.60;99.90;;;;;;5115254;28;20553;-65
2021/08/22 10:01:29;;;;;;;8.43;7.63;;;20.40;99.90;;;;;;5114657;28;20636;-65
2021/08/22 10:04:16;;;;;;;8.40;7.60;;;20.20;99.90;;;;;;5103711;28;20582;-65
2021/08/22 10:06:57;;;;;;;8.13;7.43;;;20.00;99.90;;;;;;5113534;28;20679;-65
2021/08/22 10:09:24;;;;;;;8.93;7.53;;;20.10;99.90;;;;;;5114586;28;20580;-62
2021/08/22 10:12:00;;;;;;;8.27;7.57;;;20.10;99.90;;;;;;5113994;28;20673;-63
2021/08/22 10:14:30;;;;;;;7.87;7.17;;;20.00;99.90;;;;;;5112391;28;20647;-63
2021/08/22 10:16:58;;;;;;;8.20;7.50;;;20.00;99.90;;;;;;5108620;28;21006;-64
2021/08/22 10:19:28;;;;;;;9.00;8.10;;;19.90;99.90;;;;;;5097191;28;20620;-63
2021/08/22 10:22:11;;;;;;;8.97;8.07;;;20.00;99.90;;;;;;5114546;28;20616;-64
2021/08/22 10:24:37;;;;;;;8.03;7.40;;;20.00;99.90;;;;;;5113539;28;20625;-63
2021/08/22 10:27:05;;;;;;;7.17;6.43;;;19.90;99.90;;;;;;5113964;28;21170;-63
2021/08/22 10:29:57;;;;;;;7.33;6.73;;;20.00;99.90;;;;;;5114780;28;20626;-64
2021/08/22 10:32:24;;;;;;;7.50;6.80;;;19.90;99.90;;;;;;5113639;28;20624;-63
2021/08/22 10:35:15;;;;;;;7.70;7.00;;;19.90;99.90;;;;;;5114529;28;20974;-65
2021/08/22 10:37:43;;;;;;;7.30;6.60;;;19.90;99.90;;;;;;5114270;28;20584;-65
2021/08/22 10:40:24;;;;;;;6.87;6.20;;;19.90;99.90;;;;;;5113630;28;21159;-63
2021/08/22 10:42:57;;;;;;;7.13;6.53;;;20.00;99.90;;;;;;5114026;28;20985;-63
2021/08/22 10:45:47;;;;;;;6.60;6.10;;;19.90;99.90;;;;;;5114152;28;20560;-64
2021/08/22 10:48:40;;;;;;;7.37;6.60;;;19.90;99.90;;;;;;5114645;28;21190;-65
2021/08/22 10:51:08;;;;;;;7.67;7.03;;;20.00;99.90;;;;;;5100466;28;20959;-64
2021/08/22 10:53:38;;;;;;;7.10;6.50;;;20.10;99.90;;;;;;5113768;28;20616;-64
2021/08/22 10:56:23;;;;;;;6.70;5.60;;;20.10;99.90;;;;;;5113726;28;20663;-64
2021/08/22 10:58:56;;;;;;;7.37;6.70;;;20.00;99.90;;;;;;5114064;28;20620;-63
2021/08/22 11:01:24;;;;;;;8.23;5.83;;;19.90;99.90;;;;;;5113875;28;20609;-63
2021/08/22 11:04:02;;;;;;;7.73;7.07;;;19.80;99.90;;;;;;5114006;28;21162;-63
2021/08/22 11:06:28;;;;;;;8.00;7.30;;;19.90;99.90;;;;;;5113623;28;20956;-63
2021/08/22 11:08:55;;;;;;;8.10;6.47;;;19.90;99.90;;;;;;5113702;28;21139;-64
2021/08/22 11:11:21;;;;;;;7.13;6.53;;;19.80;99.90;;;;;;5113919;28;20585;-63
2021/08/22 11:13:55;;;;;;;5.60;5.10;;;19.80;99.90;;;;;;5113723;28;20611;-65
2021/08/22 11:16:41;;;;;;;7.90;6.17;;;19.70;99.90;;;;;;5095064;28;21040;-64
2021/08/22 11:19:08;;;;;;;6.10;5.60;;;19.90;99.90;;;;;;5113806;28;20600;-65
2021/08/22 11:21:34;;;;;;;6.37;5.87;;;20.00;99.90;;;;;;5113110;28;20628;-64
2021/08/22 11:24:01;;;;;;;9.13;5.60;;;20.20;99.90;;;;;;5113731;28;20953;-64
2021/08/22 11:26:30;;;;;;;6.10;5.50;;;20.40;99.90;;;;;;5113773;28;20621;-65
2021/08/22 11:28:57;;;;;;;4.67;4.37;;;20.30;99.90;;;;;;5114078;28;20967;-64
2021/08/22 11:31:34;;;;;;;5.50;4.43;;;20.20;99.90;;;;;;5113766;28;20632;-64
2021/08/22 11:34:12;;;;;;;4.73;4.33;;;20.30;99.90;;;;;;5113392;28;20564;-64
2021/08/22 11:36:38;;;;;;;4.27;4.07;;;20.20;99.90;;;;;;5116232;28;20592;-64
2021/08/22 11:39:19;;;;;;;6.47;4.27;;;20.30;99.90;;;;;;5099472;28;20632;-64
2021/08/22 11:41:50;;;;;;;5.07;4.67;;;20.40;99.90;;;;;;5117699;28;20642;-64
2021/08/22 11:44:23;;;;;;;4.87;4.57;;;20.50;99.90;;;;;;5116753;28;21268;-64
2021/08/22 11:46:52;;;;;;;4.57;4.17;;;20.70;99.90;;;;;;5117268;28;21215;-64
2021/08/22 11:49:19;;;;;;;4.90;4.40;;;20.70;99.90;;;;;;5116830;28;20622;-65
2021/08/22 11:51:52;;;;;;;4.50;4.10;;;20.60;99.90;;;;;;5099997;28;20610;-65
2021/08/22 11:54:19;;;;;;;5.63;5.20;;;20.40;99.90;;;;;;5099683;28;21082;-64
2021/08/22 11:56:46;;;;;;;4.63;4.23;;;20.40;99.90;;;;;;5117884;28;20616;-64
2021/08/22 11:59:29;;;;;;;4.63;4.33;;;20.40;99.90;;;;;;5117379;28;20983;-64
2021/08/22 12:02:20;;;;;;;4.90;4.50;;;20.40;99.90;;;;;;5117540;28;20557;-64
2021/08/22 12:04:46;;;;;;;7.33;4.43;;;20.30;99.90;;;;;;5116957;28;20628;-64
2021/08/22 12:07:18;;;;;;;4.40;4.07;;;20.20;99.90;;;;;;5117336;28;20592;-64
2021/08/22 12:09:50;;;;;;;4.93;4.50;;;20.50;99.90;;;;;;5117323;28;20552;-64
2021/08/22 12:12:22;;;;;;;5.53;5.13;;;20.70;99.90;;;;;;5117146;28;20623;-64
2021/08/22 12:14:50;;;;;;;4.37;4.07;;;20.80;99.90;;;;;;5118237;28;20638;-64
2021/08/22 12:17:23;;;;;;;5.70;5.30;;;20.80;99.90;;;;;;5117449;28;20688;-65
2021/08/22 12:19:50;;;;;;;5.90;5.40;;;20.80;99.90;;;;;;5116806;28;20620;-64
2021/08/22 12:22:16;;;;;;;5.27;4.70;;;20.60;99.90;;;;;;5117410;28;20643;-64
2021/08/22 12:24:47;;;;;;;5.50;4.67;;;20.60;99.90;;;;;;5117127;28;20603;-64
2021/08/22 12:27:28;;;;;;;5.63;5.13;;;20.40;99.90;;;;;;5117118;28;21217;-65
2021/08/22 12:30:10;;;;;;;6.57;5.97;;;20.40;99.90;;;;;;5115933;28;20624;-65
2021/08/22 12:32:37;;;;;;;6.63;6.03;;;20.40;99.90;;;;;;5116162;28;20622;-66
2021/08/22 12:35:05;;;;;;;6.50;6.00;;;20.30;99.90;;;;;;5116709;28;20628;-65
2021/08/22 12:37:34;;;;;;;7.87;6.60;;;20.30;99.90;;;;;;5098456;28;20688;-65
2021/08/22 12:40:05;;;;;;;7.87;7.17;;;20.40;99.90;;;;;;5116970;28;20600;-65
2021/08/22 12:42:33;;;;;;;6.63;6.13;;;20.20;99.90;;;;;;5115395;28;20640;-65
2021/08/22 12:45:00;;;;;;;7.67;6.87;;;20.30;99.90;;;;;;5116337;28;21146;-65
2021/08/22 12:47:26;;;;;;;7.67;7.00;;;20.30;99.90;;;;;;5116067;28;20616;-65
2021/08/22 12:49:53;;;;;;;7.20;6.50;;;20.00;99.90;;;;;;5116494;28;20592;-65
2021/08/22 12:52:20;;;;;;;7.07;6.47;;;20.00;99.90;;;;;;5116479;28;20591;-65
2021/08/22 12:54:46;;;;;;;8.30;7.60;;;20.10;99.90;;;;;;5116382;28;20636;-63
2021/08/22 12:57:12;;;;;;;8.00;7.30;;;20.00;99.90;;;;;;5116457;28;20603;-63
2021/08/22 12:59:41;;;;;;;7.30;6.70;;;19.70;99.90;;;;;;5116345;28;20615;-64
2021/08/22 13:02:07;;;;;;;8.70;7.10;;;19.70;99.90;;;;;;5116562;28;20604;-64